sensor_id;sensor_type;location;lat;lon;timestamp;P1;durP1;ratioP1;P2;durP2;ratioP2
41233;SDS011;26968;42.686;23.352;2023-02-15T00:01:10;80.55;;;38.65;;
41233;SDS011;26968;42.686;23.352;2023-02-15T00:03:37;85.00;;;39.08;;
41233;SDS011;26968;42.686;23.352;2023-02-15T00:06:03;82.45;;;39.00;;
41233;SDS011;26968;42.686;23.352;2023-02-15T00:08:29;82.88;;;39.72;;
41233;SDS011;26968;42.686;23.352;2023-02-15T00:11:05;82.53;;;38.72;;
41233;SDS011;26968;42.686;23.352;2023-02-15T00:13:33;81.07;;;38.65;;
41233;SDS011;26968;42.686;23.352;2023-02-15T00:16:07;82.15;;;39.92;;
41233;SDS011;26968;42.686;23.352;2023-02-15T00:18:35;85.55;;;40.25;;
41233;SDS011;26968;42.686;23.352;2023-02-15T00:21:05;78.53;;;40.08;;
41233;SDS011;26968;42.686;23.352;2023-02-15T00:23:32;82.40;;;38.17;;
41233;SDS011;26968;42.686;23.352;2023-02-15T00:26:10;82.85;;;41.65;;
41233;SDS011;26968;42.686;23.352;2023-02-15T00:28:37;83.10;;;39.42;;
41233;SDS011;26968;42.686;23.352;2023-02-15T00:31:07;84.13;;;38.55;;
41233;SDS011;26968;42.686;23.352;2023-02-15T00:33:34;81.38;;;41.47;;
41233;SDS011;26968;42.686;23.352;2023-02-15T00:36:01;83.13;;;39.65;;
41233;SDS011;26968;42.686;23.352;2023-02-15T00:38:28;77.30;;;38.75;;
41233;SDS011;26968;42.686;23.352;2023-02-15T00:40:56;86.35;;;40.03;;
41233;SDS011;26968;42.686;23.352;2023-02-15T00:43:22;75.32;;;37.50;;
41233;SDS011;26968;42.686;23.352;2023-02-15T00:45:48;82.47;;;39.00;;
41233;SDS011;26968;42.686;23.352;2023-02-15T00:48:14;77.22;;;37.00;;
41233;SDS011;26968;42.686;23.352;2023-02-15T00:50:39;82.18;;;38.53;;
41233;SDS011;26968;42.686;23.352;2023-02-15T00:53:05;79.38;;;39.33;;
41233;SDS011;26968;42.686;23.352;2023-02-15T00:55:30;78.90;;;37.88;;
41233;SDS011;26968;42.686;23.352;2023-02-15T00:57:56;79.10;;;37.83;;
41233;SDS011;26968;42.686;23.352;2023-02-15T01:00:21;77.45;;;37.92;;
41233;SDS011;26968;42.686;23.352;2023-02-15T01:02:47;77.70;;;38.42;;
41233;SDS011;26968;42.686;23.352;2023-02-15T01:05:12;74.55;;;37.35;;
41233;SDS011;26968;42.686;23.352;2023-02-15T01:07:38;77.75;;;38.17;;
41233;SDS011;26968;42.686;23.352;2023-02-15T01:10:04;75.13;;;36.40;;
41233;SDS011;26968;42.686;23.352;2023-02-15T01:12:31;77.93;;;38.67;;
41233;SDS011;26968;42.686;23.352;2023-02-15T01:14:57;74.82;;;36.65;;
41233;SDS011;26968;42.686;23.352;2023-02-15T01:17:22;75.82;;;36.90;;
41233;SDS011;26968;42.686;23.352;2023-02-15T01:19:47;76.70;;;37.35;;
41233;SDS011;26968;42.686;23.352;2023-02-15T01:22:13;76.28;;;36.83;;
41233;SDS011;26968;42.686;23.352;2023-02-15T01:24:38;72.25;;;35.75;;
41233;SDS011;26968;42.686;23.352;2023-02-15T01:27:04;74.75;;;37.15;;
41233;SDS011;26968;42.686;23.352;2023-02-15T01:29:29;75.50;;;35.97;;
41233;SDS011;26968;42.686;23.352;2023-02-15T01:31:54;72.60;;;34.75;;
41233;SDS011;26968;42.686;23.352;2023-02-15T01:34:20;74.15;;;35.30;;
41233;SDS011;26968;42.686;23.352;2023-02-15T01:36:45;72.63;;;37.10;;
41233;SDS011;26968;42.686;23.352;2023-02-15T01:39:11;74.72;;;36.03;;
41233;SDS011;26968;42.686;23.352;2023-02-15T01:41:36;71.05;;;35.55;;
41233;SDS011;26968;42.686;23.352;2023-02-15T01:44:02;74.90;;;36.63;;
41233;SDS011;26968;42.686;23.352;2023-02-15T01:49:00;69.53;;;35.30;;
41233;SDS011;26968;42.686;23.352;2023-02-15T01:51:36;74.70;;;36.88;;
41233;SDS011;26968;42.686;23.352;2023-02-15T01:54:07;72.93;;;36.50;;
41233;SDS011;26968;42.686;23.352;2023-02-15T01:56:37;71.82;;;36.42;;
41233;SDS011;26968;42.686;23.352;2023-02-15T01:59:06;70.20;;;34.65;;
41233;SDS011;26968;42.686;23.352;2023-02-15T02:01:41;72.20;;;35.53;;
41233;SDS011;26968;42.686;23.352;2023-02-15T02:04:17;75.55;;;36.22;;
41233;SDS011;26968;42.686;23.352;2023-02-15T02:07:06;72.03;;;36.90;;
41233;SDS011;26968;42.686;23.352;2023-02-15T02:09:32;69.30;;;35.80;;
41233;SDS011;26968;42.686;23.352;2023-02-15T02:11:58;78.00;;;36.40;;
41233;SDS011;26968;42.686;23.352;2023-02-15T02:14:25;73.57;;;36.05;;
41233;SDS011;26968;42.686;23.352;2023-02-15T02:27:41;73.78;;;35.83;;
41233;SDS011;26968;42.686;23.352;2023-02-15T02:38:30;66.25;;;34.60;;
41233;SDS011;26968;42.686;23.352;2023-02-15T02:41:20;69.60;;;35.00;;
41233;SDS011;26968;42.686;23.352;2023-02-15T02:43:51;66.28;;;33.53;;
41233;SDS011;26968;42.686;23.352;2023-02-15T02:49:13;65.78;;;33.80;;
41233;SDS011;26968;42.686;23.352;2023-02-15T02:51:38;67.07;;;32.53;;
41233;SDS011;26968;42.686;23.352;2023-02-15T02:54:04;71.60;;;35.53;;
41233;SDS011;26968;42.686;23.352;2023-02-15T02:59:33;70.70;;;33.80;;
41233;SDS011;26968;42.686;23.352;2023-02-15T03:01:55;64.28;;;32.53;;
41233;SDS011;26968;42.686;23.352;2023-02-15T03:04:31;66.97;;;31.73;;
41233;SDS011;26968;42.686;23.352;2023-02-15T03:07:03;75.15;;;34.40;;
41233;SDS011;26968;42.686;23.352;2023-02-15T03:12:09;69.28;;;33.08;;
41233;SDS011;26968;42.686;23.352;2023-02-15T03:14:38;65.63;;;33.42;;
41233;SDS011;26968;42.686;23.352;2023-02-15T03:17:06;74.28;;;34.50;;
41233;SDS011;26968;42.686;23.352;2023-02-15T03:19:34;67.03;;;32.88;;
41233;SDS011;26968;42.686;23.352;2023-02-15T03:22:06;63.13;;;32.60;;
41233;SDS011;26968;42.686;23.352;2023-02-15T03:24:41;66.28;;;32.63;;
41233;SDS011;26968;42.686;23.352;2023-02-15T03:27:16;66.25;;;34.00;;
41233;SDS011;26968;42.686;23.352;2023-02-15T03:29:47;65.55;;;32.53;;
41233;SDS011;26968;42.686;23.352;2023-02-15T03:32:18;69.90;;;32.35;;
41233;SDS011;26968;42.686;23.352;2023-02-15T03:34:44;67.15;;;33.80;;
41233;SDS011;26968;42.686;23.352;2023-02-15T03:37:16;66.25;;;34.78;;
41233;SDS011;26968;42.686;23.352;2023-02-15T03:39:51;70.00;;;33.25;;
41233;SDS011;26968;42.686;23.352;2023-02-15T03:42:27;68.90;;;32.50;;
41233;SDS011;26968;42.686;23.352;2023-02-15T03:44:58;65.63;;;32.67;;
41233;SDS011;26968;42.686;23.352;2023-02-15T03:47:28;62.60;;;32.22;;
41233;SDS011;26968;42.686;23.352;2023-02-15T03:50:09;64.22;;;32.70;;
41233;SDS011;26968;42.686;23.352;2023-02-15T03:52:57;61.92;;;34.00;;
41233;SDS011;26968;42.686;23.352;2023-02-15T03:55:27;68.80;;;32.78;;
41233;SDS011;26968;42.686;23.352;2023-02-15T03:57:53;64.05;;;31.45;;
41233;SDS011;26968;42.686;23.352;2023-02-15T04:00:37;67.07;;;31.38;;
41233;SDS011;26968;42.686;23.352;2023-02-15T04:06:01;59.42;;;30.65;;
41233;SDS011;26968;42.686;23.352;2023-02-15T04:08:27;66.18;;;32.53;;
41233;SDS011;26968;42.686;23.352;2023-02-15T04:11:11;68.90;;;33.40;;
41233;SDS011;26968;42.686;23.352;2023-02-15T04:13:37;63.47;;;31.83;;
41233;SDS011;26968;42.686;23.352;2023-02-15T04:16:02;61.95;;;33.22;;
41233;SDS011;26968;42.686;23.352;2023-02-15T04:18:32;65.30;;;32.80;;
41233;SDS011;26968;42.686;23.352;2023-02-15T04:21:17;62.60;;;33.17;;
41233;SDS011;26968;42.686;23.352;2023-02-15T04:24:02;66.40;;;32.60;;
41233;SDS011;26968;42.686;23.352;2023-02-15T04:26:46;65.80;;;32.92;;
41233;SDS011;26968;42.686;23.352;2023-02-15T04:29:13;66.18;;;31.40;;
41233;SDS011;26968;42.686;23.352;2023-02-15T04:31:39;64.53;;;33.95;;
41233;SDS011;26968;42.686;23.352;2023-02-15T04:34:05;67.15;;;32.63;;
41233;SDS011;26968;42.686;23.352;2023-02-15T04:36:30;67.70;;;32.92;;
41233;SDS011;26968;42.686;23.352;2023-02-15T04:38:56;66.05;;;30.88;;
41233;SDS011;26968;42.686;23.352;2023-02-15T04:41:21;66.05;;;32.83;;
41233;SDS011;26968;42.686;23.352;2023-02-15T04:43:46;59.58;;;31.65;;
41233;SDS011;26968;42.686;23.352;2023-02-15T04:46:12;60.17;;;32.28;;
41233;SDS011;26968;42.686;23.352;2023-02-15T04:48:37;63.80;;;32.42;;
41233;SDS011;26968;42.686;23.352;2023-02-15T04:51:06;70.03;;;33.58;;
41233;SDS011;26968;42.686;23.352;2023-02-15T04:53:32;65.40;;;32.80;;
41233;SDS011;26968;42.686;23.352;2023-02-15T04:55:58;67.95;;;33.28;;
41233;SDS011;26968;42.686;23.352;2023-02-15T04:58:23;66.82;;;33.95;;
41233;SDS011;26968;42.686;23.352;2023-02-15T05:00:49;65.57;;;31.85;;
41233;SDS011;26968;42.686;23.352;2023-02-15T05:03:14;65.28;;;33.95;;
41233;SDS011;26968;42.686;23.352;2023-02-15T05:05:39;72.07;;;33.90;;
41233;SDS011;26968;42.686;23.352;2023-02-15T05:08:05;69.82;;;33.83;;
41233;SDS011;26968;42.686;23.352;2023-02-15T05:10:30;69.07;;;34.42;;
41233;SDS011;26968;42.686;23.352;2023-02-15T05:12:56;66.93;;;32.58;;
41233;SDS011;26968;42.686;23.352;2023-02-15T05:15:21;66.13;;;33.35;;
41233;SDS011;26968;42.686;23.352;2023-02-15T05:17:47;67.40;;;33.42;;
41233;SDS011;26968;42.686;23.352;2023-02-15T05:20:12;64.63;;;33.00;;
41233;SDS011;26968;42.686;23.352;2023-02-15T05:22:37;58.40;;;30.63;;
41233;SDS011;26968;42.686;23.352;2023-02-15T05:25:03;64.72;;;33.08;;
41233;SDS011;26968;42.686;23.352;2023-02-15T05:27:50;66.22;;;32.70;;
41233;SDS011;26968;42.686;23.352;2023-02-15T05:30:34;62.40;;;31.88;;
41233;SDS011;26968;42.686;23.352;2023-02-15T05:33:00;69.38;;;33.08;;
41233;SDS011;26968;42.686;23.352;2023-02-15T05:35:25;67.55;;;32.50;;
41233;SDS011;26968;42.686;23.352;2023-02-15T05:37:51;64.65;;;31.98;;
41233;SDS011;26968;42.686;23.352;2023-02-15T05:40:16;62.47;;;32.45;;
41233;SDS011;26968;42.686;23.352;2023-02-15T05:42:41;66.93;;;33.58;;
41233;SDS011;26968;42.686;23.352;2023-02-15T05:45:07;64.25;;;32.17;;
41233;SDS011;26968;42.686;23.352;2023-02-15T05:47:32;62.72;;;33.65;;
41233;SDS011;26968;42.686;23.352;2023-02-15T05:49:58;65.78;;;33.03;;
41233;SDS011;26968;42.686;23.352;2023-02-15T05:52:23;66.50;;;31.85;;
41233;SDS011;26968;42.686;23.352;2023-02-15T05:54:49;67.13;;;31.88;;
41233;SDS011;26968;42.686;23.352;2023-02-15T05:57:14;64.82;;;33.17;;
41233;SDS011;26968;42.686;23.352;2023-02-15T05:59:39;66.32;;;32.53;;
41233;SDS011;26968;42.686;23.352;2023-02-15T06:02:05;68.47;;;33.70;;
41233;SDS011;26968;42.686;23.352;2023-02-15T06:04:31;69.45;;;32.85;;
41233;SDS011;26968;42.686;23.352;2023-02-15T06:06:59;57.08;;;30.20;;
41233;SDS011;26968;42.686;23.352;2023-02-15T06:09:28;66.72;;;32.17;;
41233;SDS011;26968;42.686;23.352;2023-02-15T06:11:53;67.25;;;31.45;;
41233;SDS011;26968;42.686;23.352;2023-02-15T06:14:24;69.35;;;34.60;;
41233;SDS011;26968;42.686;23.352;2023-02-15T06:16:50;57.88;;;30.58;;
41233;SDS011;26968;42.686;23.352;2023-02-15T06:19:17;58.67;;;31.17;;
41233;SDS011;26968;42.686;23.352;2023-02-15T06:21:49;63.90;;;33.00;;
41233;SDS011;26968;42.686;23.352;2023-02-15T06:24:17;65.47;;;31.25;;
41233;SDS011;26968;42.686;23.352;2023-02-15T06:26:48;59.47;;;29.45;;
41233;SDS011;26968;42.686;23.352;2023-02-15T06:29:13;59.05;;;31.20;;
41233;SDS011;26968;42.686;23.352;2023-02-15T06:31:39;61.28;;;29.55;;
41233;SDS011;26968;42.686;23.352;2023-02-15T06:34:04;61.05;;;31.98;;
41233;SDS011;26968;42.686;23.352;2023-02-15T06:36:30;59.90;;;30.55;;
41233;SDS011;26968;42.686;23.352;2023-02-15T06:38:57;63.72;;;31.63;;
41233;SDS011;26968;42.686;23.352;2023-02-15T06:41:22;59.25;;;30.08;;
41233;SDS011;26968;42.686;23.352;2023-02-15T06:43:48;58.95;;;29.40;;
41233;SDS011;26968;42.686;23.352;2023-02-15T06:46:14;60.50;;;29.02;;
41233;SDS011;26968;42.686;23.352;2023-02-15T06:48:40;58.35;;;29.10;;
41233;SDS011;26968;42.686;23.352;2023-02-15T06:51:06;66.25;;;30.63;;
41233;SDS011;26968;42.686;23.352;2023-02-15T06:53:31;54.60;;;26.65;;
41233;SDS011;26968;42.686;23.352;2023-02-15T06:56:04;65.55;;;32.05;;
41233;SDS011;26968;42.686;23.352;2023-02-15T06:58:37;66.93;;;31.05;;
41233;SDS011;26968;42.686;23.352;2023-02-15T07:01:10;55.55;;;28.65;;
41233;SDS011;26968;42.686;23.352;2023-02-15T07:03:37;59.95;;;29.58;;
41233;SDS011;26968;42.686;23.352;2023-02-15T07:06:03;64.10;;;31.65;;
41233;SDS011;26968;42.686;23.352;2023-02-15T07:08:33;62.65;;;30.48;;
41233;SDS011;26968;42.686;23.352;2023-02-15T07:10:59;61.72;;;28.00;;
41233;SDS011;26968;42.686;23.352;2023-02-15T07:13:45;61.10;;;30.20;;
41233;SDS011;26968;42.686;23.352;2023-02-15T07:16:11;59.22;;;29.90;;
41233;SDS011;26968;42.686;23.352;2023-02-15T07:18:37;62.70;;;28.95;;
41233;SDS011;26968;42.686;23.352;2023-02-15T07:21:03;60.38;;;27.70;;
41233;SDS011;26968;42.686;23.352;2023-02-15T07:23:36;51.60;;;26.40;;
41233;SDS011;26968;42.686;23.352;2023-02-15T07:26:02;56.58;;;27.60;;
41233;SDS011;26968;42.686;23.352;2023-02-15T07:28:29;51.75;;;26.27;;
41233;SDS011;26968;42.686;23.352;2023-02-15T07:30:55;50.60;;;27.05;;
41233;SDS011;26968;42.686;23.352;2023-02-15T07:33:20;54.58;;;28.02;;
41233;SDS011;26968;42.686;23.352;2023-02-15T07:38:17;54.55;;;26.45;;
41233;SDS011;26968;42.686;23.352;2023-02-15T07:40:43;51.90;;;26.20;;
41233;SDS011;26968;42.686;23.352;2023-02-15T07:43:09;53.95;;;25.33;;
41233;SDS011;26968;42.686;23.352;2023-02-15T07:45:35;49.05;;;25.83;;
41233;SDS011;26968;42.686;23.352;2023-02-15T07:48:02;60.50;;;27.98;;
41233;SDS011;26968;42.686;23.352;2023-02-15T07:50:28;53.72;;;25.00;;
41233;SDS011;26968;42.686;23.352;2023-02-15T07:52:53;58.67;;;26.23;;
41233;SDS011;26968;42.686;23.352;2023-02-15T07:55:19;53.97;;;25.13;;
41233;SDS011;26968;42.686;23.352;2023-02-15T07:57:44;65.00;;;28.20;;
41233;SDS011;26968;42.686;23.352;2023-02-15T08:00:11;49.25;;;25.38;;
41233;SDS011;26968;42.686;23.352;2023-02-15T08:02:38;66.07;;;26.23;;
41233;SDS011;26968;42.686;23.352;2023-02-15T08:05:04;64.72;;;25.33;;
41233;SDS011;26968;42.686;23.352;2023-02-15T08:07:30;55.47;;;25.83;;
41233;SDS011;26968;42.686;23.352;2023-02-15T08:09:55;47.80;;;25.27;;
41233;SDS011;26968;42.686;23.352;2023-02-15T08:12:20;58.88;;;24.90;;
41233;SDS011;26968;42.686;23.352;2023-02-15T08:14:47;68.93;;;25.52;;
41233;SDS011;26968;42.686;23.352;2023-02-15T08:17:12;57.88;;;27.35;;
41233;SDS011;26968;42.686;23.352;2023-02-15T08:19:38;65.30;;;28.30;;
41233;SDS011;26968;42.686;23.352;2023-02-15T08:22:04;81.60;;;27.58;;
41233;SDS011;26968;42.686;23.352;2023-02-15T08:24:35;54.35;;;27.38;;
41233;SDS011;26968;42.686;23.352;2023-02-15T08:27:02;47.45;;;25.02;;
41233;SDS011;26968;42.686;23.352;2023-02-15T08:29:28;55.70;;;24.60;;
41233;SDS011;26968;42.686;23.352;2023-02-15T08:31:56;50.75;;;25.33;;
41233;SDS011;26968;42.686;23.352;2023-02-15T08:34:26;53.00;;;25.20;;
41233;SDS011;26968;42.686;23.352;2023-02-15T08:36:54;56.95;;;25.58;;
41233;SDS011;26968;42.686;23.352;2023-02-15T08:39:19;55.50;;;25.98;;
41233;SDS011;26968;42.686;23.352;2023-02-15T08:41:46;65.82;;;25.77;;
41233;SDS011;26968;42.686;23.352;2023-02-15T08:44:12;50.88;;;23.85;;
41233;SDS011;26968;42.686;23.352;2023-02-15T08:46:40;44.25;;;23.35;;
41233;SDS011;26968;42.686;23.352;2023-02-15T08:49:07;48.13;;;25.15;;
41233;SDS011;26968;42.686;23.352;2023-02-15T08:51:34;55.83;;;25.58;;
41233;SDS011;26968;42.686;23.352;2023-02-15T08:54:03;45.03;;;24.60;;
41233;SDS011;26968;42.686;23.352;2023-02-15T08:56:32;47.42;;;22.65;;
41233;SDS011;26968;42.686;23.352;2023-02-15T08:59:00;43.83;;;21.90;;
41233;SDS011;26968;42.686;23.352;2023-02-15T09:01:30;46.90;;;22.02;;
41233;SDS011;26968;42.686;23.352;2023-02-15T09:04:04;47.72;;;22.48;;
41233;SDS011;26968;42.686;23.352;2023-02-15T09:06:33;48.17;;;24.30;;
41233;SDS011;26968;42.686;23.352;2023-02-15T09:09:02;48.35;;;22.23;;
41233;SDS011;26968;42.686;23.352;2023-02-15T09:11:30;60.75;;;22.45;;
41233;SDS011;26968;42.686;23.352;2023-02-15T09:13:59;51.08;;;21.77;;
41233;SDS011;26968;42.686;23.352;2023-02-15T09:16:30;36.63;;;19.02;;
41233;SDS011;26968;42.686;23.352;2023-02-15T09:18:57;39.63;;;22.30;;
41233;SDS011;26968;42.686;23.352;2023-02-15T09:21:25;48.60;;;23.70;;
41233;SDS011;26968;42.686;23.352;2023-02-15T09:23:55;44.45;;;23.13;;
41233;SDS011;26968;42.686;23.352;2023-02-15T09:26:25;46.10;;;22.48;;
41233;SDS011;26968;42.686;23.352;2023-02-15T09:28:55;46.92;;;22.58;;
41233;SDS011;26968;42.686;23.352;2023-02-15T09:31:24;43.53;;;22.38;;
41233;SDS011;26968;42.686;23.352;2023-02-15T09:33:51;48.15;;;25.35;;
41233;SDS011;26968;42.686;23.352;2023-02-15T09:36:24;54.60;;;23.70;;
41233;SDS011;26968;42.686;23.352;2023-02-15T09:38:58;39.60;;;22.20;;
41233;SDS011;26968;42.686;23.352;2023-02-15T09:41:38;47.28;;;23.17;;
41233;SDS011;26968;42.686;23.352;2023-02-15T10:14:38;41.13;;;23.40;;
41233;SDS011;26968;42.686;23.352;2023-02-15T10:17:18;45.53;;;21.98;;
41233;SDS011;26968;42.686;23.352;2023-02-15T10:28:01;46.08;;;23.50;;
41233;SDS011;26968;42.686;23.352;2023-02-15T10:30:41;43.47;;;24.00;;
41233;SDS011;26968;42.686;23.352;2023-02-15T10:38:56;42.55;;;23.85;;
41233;SDS011;26968;42.686;23.352;2023-02-15T10:46:53;50.83;;;24.13;;
41233;SDS011;26968;42.686;23.352;2023-02-15T10:49:48;48.47;;;23.42;;
41233;SDS011;26968;42.686;23.352;2023-02-15T10:55:06;57.75;;;26.92;;
41233;SDS011;26968;42.686;23.352;2023-02-15T11:06:33;52.03;;;25.48;;
41233;SDS011;26968;42.686;23.352;2023-02-15T11:09:13;41.38;;;22.98;;
41233;SDS011;26968;42.686;23.352;2023-02-15T11:11:43;48.67;;;24.15;;
41233;SDS011;26968;42.686;23.352;2023-02-15T11:17:10;46.55;;;23.27;;
41233;SDS011;26968;42.686;23.352;2023-02-15T11:19:43;44.08;;;23.55;;
41233;SDS011;26968;42.686;23.352;2023-02-15T11:22:19;47.50;;;25.65;;
41233;SDS011;26968;42.686;23.352;2023-02-15T11:27:30;46.45;;;25.70;;
41233;SDS011;26968;42.686;23.352;2023-02-15T11:32:47;50.28;;;25.45;;
41233;SDS011;26968;42.686;23.352;2023-02-15T11:35:24;51.92;;;24.48;;
41233;SDS011;26968;42.686;23.352;2023-02-15T11:37:57;43.45;;;25.27;;
41233;SDS011;26968;42.686;23.352;2023-02-15T11:40:43;49.03;;;25.63;;
41233;SDS011;26968;42.686;23.352;2023-02-15T11:43:12;38.53;;;23.48;;
41233;SDS011;26968;42.686;23.352;2023-02-15T11:45:41;58.53;;;25.48;;
41233;SDS011;26968;42.686;23.352;2023-02-15T11:48:10;39.08;;;22.92;;
41233;SDS011;26968;42.686;23.352;2023-02-15T11:50:37;40.50;;;24.08;;
41233;SDS011;26968;42.686;23.352;2023-02-15T11:53:04;45.85;;;25.52;;
41233;SDS011;26968;42.686;23.352;2023-02-15T11:55:36;41.78;;;22.40;;
41233;SDS011;26968;42.686;23.352;2023-02-15T11:58:04;42.10;;;24.85;;
41233;SDS011;26968;42.686;23.352;2023-02-15T12:00:50;43.70;;;23.38;;
41233;SDS011;26968;42.686;23.352;2023-02-15T12:04:04;42.10;;;24.20;;
41233;SDS011;26968;42.686;23.352;2023-02-15T12:06:19;45.30;;;23.15;;
41233;SDS011;26968;42.686;23.352;2023-02-15T12:08:51;43.92;;;24.73;;
41233;SDS011;26968;42.686;23.352;2023-02-15T12:11:30;42.63;;;23.63;;
41233;SDS011;26968;42.686;23.352;2023-02-15T12:14:00;40.95;;;23.95;;
41233;SDS011;26968;42.686;23.352;2023-02-15T12:16:31;66.13;;;24.77;;
41233;SDS011;26968;42.686;23.352;2023-02-15T12:19:42;43.20;;;23.75;;
41233;SDS011;26968;42.686;23.352;2023-02-15T12:22:05;46.25;;;25.65;;
41233;SDS011;26968;42.686;23.352;2023-02-15T12:24:46;46.00;;;25.20;;
41233;SDS011;26968;42.686;23.352;2023-02-15T12:27:15;51.83;;;24.90;;
41233;SDS011;26968;42.686;23.352;2023-02-15T12:29:44;44.30;;;24.80;;
41233;SDS011;26968;42.686;23.352;2023-02-15T12:32:17;49.83;;;24.35;;
41233;SDS011;26968;42.686;23.352;2023-02-15T12:35:21;41.75;;;24.52;;
41233;SDS011;26968;42.686;23.352;2023-02-15T12:37:56;47.45;;;25.10;;
41233;SDS011;26968;42.686;23.352;2023-02-15T12:40:30;51.90;;;26.60;;
41233;SDS011;26968;42.686;23.352;2023-02-15T12:42:58;45.35;;;25.70;;
41233;SDS011;26968;42.686;23.352;2023-02-15T12:45:25;43.65;;;25.00;;
41233;SDS011;26968;42.686;23.352;2023-02-15T12:50:37;38.92;;;21.88;;
41233;SDS011;26968;42.686;23.352;2023-02-15T12:53:13;38.65;;;23.15;;
41233;SDS011;26968;42.686;23.352;2023-02-15T12:55:54;41.80;;;23.80;;
41233;SDS011;26968;42.686;23.352;2023-02-15T12:58:22;38.15;;;22.83;;
41233;SDS011;26968;42.686;23.352;2023-02-15T13:03:39;47.15;;;25.85;;
41233;SDS011;26968;42.686;23.352;2023-02-15T13:06:35;43.58;;;23.55;;
41233;SDS011;26968;42.686;23.352;2023-02-15T13:09:19;41.25;;;23.95;;
41233;SDS011;26968;42.686;23.352;2023-02-15T13:14:21;42.08;;;22.95;;
41233;SDS011;26968;42.686;23.352;2023-02-15T13:16:55;38.22;;;22.40;;
41233;SDS011;26968;42.686;23.352;2023-02-15T13:19:34;41.72;;;24.48;;
41233;SDS011;26968;42.686;23.352;2023-02-15T13:22:18;45.65;;;25.02;;
41233;SDS011;26968;42.686;23.352;2023-02-15T13:24:48;41.10;;;23.45;;
41233;SDS011;26968;42.686;23.352;2023-02-15T13:27:19;40.67;;;23.35;;
41233;SDS011;26968;42.686;23.352;2023-02-15T13:29:51;53.47;;;24.08;;
41233;SDS011;26968;42.686;23.352;2023-02-15T13:32:30;43.78;;;24.90;;
41233;SDS011;26968;42.686;23.352;2023-02-15T13:34:59;47.13;;;24.30;;
41233;SDS011;26968;42.686;23.352;2023-02-15T13:40:22;41.95;;;22.55;;
41233;SDS011;26968;42.686;23.352;2023-02-15T13:42:59;43.28;;;24.95;;
41233;SDS011;26968;42.686;23.352;2023-02-15T13:48:32;40.47;;;22.50;;
41233;SDS011;26968;42.686;23.352;2023-02-15T13:54:06;41.95;;;24.00;;
41233;SDS011;26968;42.686;23.352;2023-02-15T14:00:36;42.28;;;25.15;;
41233;SDS011;26968;42.686;23.352;2023-02-15T14:02:57;42.13;;;24.35;;
41233;SDS011;26968;42.686;23.352;2023-02-15T14:19:40;58.05;;;27.52;;
41233;SDS011;26968;42.686;23.352;2023-02-15T14:30:34;49.70;;;25.92;;
41233;SDS011;26968;42.686;23.352;2023-02-15T14:35:41;46.92;;;25.90;;
41233;SDS011;26968;42.686;23.352;2023-02-15T14:38:13;56.92;;;29.98;;
41233;SDS011;26968;42.686;23.352;2023-02-15T14:41:08;48.42;;;26.73;;
41233;SDS011;26968;42.686;23.352;2023-02-15T14:56:43;47.50;;;26.48;;
41233;SDS011;26968;42.686;23.352;2023-02-15T14:59:22;53.22;;;28.33;;
41233;SDS011;26968;42.686;23.352;2023-02-15T15:02:00;47.20;;;25.70;;
41233;SDS011;26968;42.686;23.352;2023-02-15T15:04:31;46.67;;;26.55;;
41233;SDS011;26968;42.686;23.352;2023-02-15T15:07:09;47.55;;;25.65;;
41233;SDS011;26968;42.686;23.352;2023-02-15T15:09:45;54.55;;;26.88;;
41233;SDS011;26968;42.686;23.352;2023-02-15T15:14:51;42.38;;;23.63;;
41233;SDS011;26968;42.686;23.352;2023-02-15T15:20:00;49.92;;;26.55;;
41233;SDS011;26968;42.686;23.352;2023-02-15T15:22:29;50.00;;;23.83;;
41233;SDS011;26968;42.686;23.352;2023-02-15T15:43:32;49.70;;;26.65;;
41233;SDS011;26968;42.686;23.352;2023-02-15T15:48:28;60.17;;;29.73;;
41233;SDS011;26968;42.686;23.352;2023-02-15T15:51:06;48.33;;;26.55;;
41233;SDS011;26968;42.686;23.352;2023-02-15T15:53:38;51.22;;;27.13;;
41233;SDS011;26968;42.686;23.352;2023-02-15T15:56:08;55.55;;;28.23;;
41233;SDS011;26968;42.686;23.352;2023-02-15T15:58:43;52.67;;;28.10;;
41233;SDS011;26968;42.686;23.352;2023-02-15T16:01:14;55.40;;;28.15;;
41233;SDS011;26968;42.686;23.352;2023-02-15T16:03:47;58.53;;;29.92;;
41233;SDS011;26968;42.686;23.352;2023-02-15T16:06:35;53.60;;;28.45;;
41233;SDS011;26968;42.686;23.352;2023-02-15T16:09:17;53.92;;;28.02;;
41233;SDS011;26968;42.686;23.352;2023-02-15T16:11:48;64.13;;;29.83;;
41233;SDS011;26968;42.686;23.352;2023-02-15T16:16:55;67.45;;;29.48;;
41233;SDS011;26968;42.686;23.352;2023-02-15T16:19:24;60.45;;;27.90;;
41233;SDS011;26968;42.686;23.352;2023-02-15T16:21:53;58.05;;;29.17;;
41233;SDS011;26968;42.686;23.352;2023-02-15T16:27:23;62.78;;;30.75;;
41233;SDS011;26968;42.686;23.352;2023-02-15T16:35:39;58.00;;;30.52;;
41233;SDS011;26968;42.686;23.352;2023-02-15T16:38:09;55.22;;;28.60;;
41233;SDS011;26968;42.686;23.352;2023-02-15T16:40:39;74.10;;;30.35;;
41233;SDS011;26968;42.686;23.352;2023-02-15T16:43:06;60.45;;;30.42;;
41233;SDS011;26968;42.686;23.352;2023-02-15T16:45:39;59.22;;;29.83;;
41233;SDS011;26968;42.686;23.352;2023-02-15T16:48:06;64.80;;;30.27;;
41233;SDS011;26968;42.686;23.352;2023-02-15T16:50:37;55.70;;;28.58;;
41233;SDS011;26968;42.686;23.352;2023-02-15T16:53:06;61.55;;;29.80;;
41233;SDS011;26968;42.686;23.352;2023-02-15T16:55:40;62.03;;;30.00;;
41233;SDS011;26968;42.686;23.352;2023-02-15T16:58:15;62.75;;;29.40;;
41233;SDS011;26968;42.686;23.352;2023-02-15T17:00:42;67.93;;;31.92;;
41233;SDS011;26968;42.686;23.352;2023-02-15T17:08:12;69.63;;;32.03;;
41233;SDS011;26968;42.686;23.352;2023-02-15T17:11:04;65.00;;;31.45;;
41233;SDS011;26968;42.686;23.352;2023-02-15T17:13:36;57.47;;;29.98;;
41233;SDS011;26968;42.686;23.352;2023-02-15T17:18:29;61.92;;;29.40;;
41233;SDS011;26968;42.686;23.352;2023-02-15T17:21:12;67.32;;;31.73;;
41233;SDS011;26968;42.686;23.352;2023-02-15T17:23:46;66.47;;;30.92;;
41233;SDS011;26968;42.686;23.352;2023-02-15T17:26:17;63.40;;;31.98;;
41233;SDS011;26968;42.686;23.352;2023-02-15T17:28:49;75.43;;;34.15;;
41233;SDS011;26968;42.686;23.352;2023-02-15T17:31:18;69.15;;;33.45;;
41233;SDS011;26968;42.686;23.352;2023-02-15T17:33:46;63.33;;;33.65;;
41233;SDS011;26968;42.686;23.352;2023-02-15T17:36:22;67.38;;;34.35;;
41233;SDS011;26968;42.686;23.352;2023-02-15T17:43:51;62.28;;;31.20;;
41233;SDS011;26968;42.686;23.352;2023-02-15T17:46:17;71.80;;;32.28;;
41233;SDS011;26968;42.686;23.352;2023-02-15T17:48:47;70.95;;;33.88;;
41233;SDS011;26968;42.686;23.352;2023-02-15T17:51:15;62.67;;;32.33;;
41233;SDS011;26968;42.686;23.352;2023-02-15T17:53:44;68.10;;;32.60;;
41233;SDS011;26968;42.686;23.352;2023-02-15T17:56:32;62.08;;;32.53;;
41233;SDS011;26968;42.686;23.352;2023-02-15T17:59:01;64.20;;;30.67;;
41233;SDS011;26968;42.686;23.352;2023-02-15T18:01:31;68.28;;;33.13;;